Time;durP1;ratioP1;P1;durP2;ratioP2;P2;SDS_P1;SDS_P2;PMS_P1;PMS_P2;Temp;Humidity;BMP_temperature;BMP_pressure;BME280_temperature;BME280_humidity;BME280_pressure;Samples;Min_cycle;Max_cycle;Signal;HPM_P1;HPM_P2
2022/05/10 00:01:39;;;;;;;9.15;4.60;;;;;;;-148.88;66.31;75868.63;5015096;28;20037;-85
2022/05/10 00:04:07;;;;;;;7.13;4.63;;;;;;;-148.88;66.61;75864.56;5031606;28;20041;-86
2022/05/10 00:06:37;;;;;;;6.90;4.30;;;;;;;-148.88;66.18;75866.59;5016331;28;20145;-85
2022/05/10 00:09:04;;;;;;;10.43;4.65;;;;;;;-148.88;66.29;75874.72;5031475;28;20487;-86
2022/05/10 00:11:30;;;;;;;6.72;4.47;;;;;;;-148.88;66.38;75868.63;5016141;28;20040;-85
2022/05/10 00:13:55;;;;;;;7.55;4.55;;;;;;;-148.88;66.61;75870.66;5015111;28;20025;-86
2022/05/10 00:16:20;;;;;;;7.18;4.50;;;;;;;-148.88;66.49;75874.72;5016276;28;20057;-85
2022/05/10 00:18:46;;;;;;;7.55;4.85;;;;;;;-148.88;66.73;75876.75;5015170;28;20025;-85
2022/05/10 00:21:16;;;;;;;7.93;4.43;;;;;;;-148.88;66.91;75882.84;5015023;28;20018;-86
2022/05/10 00:23:42;;;;;;;7.25;4.38;;;;;;;-148.88;66.95;75880.81;5031440;28;20486;-85
2022/05/10 00:26:07;;;;;;;7.28;4.50;;;;;;;-148.88;67.36;75890.97;5014624;28;20029;-85
2022/05/10 00:28:32;;;;;;;6.68;4.15;;;;;;;-148.88;67.23;75882.84;5015476;28;20034;-86
2022/05/10 00:30:58;;;;;;;7.28;4.63;;;;;;;-148.88;67.21;75890.97;5014666;28;20433;-85
2022/05/10 00:33:27;;;;;;;8.98;4.82;;;;;;;-148.88;67.79;75895.03;5014470;28;20504;-85
2022/05/10 00:35:54;;;;;;;8.70;4.82;;;;;;;-148.88;68.13;75895.03;5031171;28;20548;-85
2022/05/10 00:38:24;;;;;;;9.30;4.63;;;;;;;-148.88;67.93;75903.16;5014558;28;20340;-86
2022/05/10 00:40:50;;;;;;;7.75;4.85;;;;;;;-148.88;67.86;75903.16;5030847;28;20030;-85
2022/05/10 00:43:33;;;;;;;6.72;4.50;;;;;;;-148.88;68.26;75907.22;5015883;28;20152;-86
2022/05/10 00:46:05;;;;;;;5.57;4.40;;;;;;;-148.88;68.23;75907.22;5014329;28;20546;-85
2022/05/10 00:48:33;;;;;;;7.93;4.70;;;;;;;-148.88;69.29;75909.25;5030879;28;20037;-86
2022/05/10 00:51:07;;;;;;;6.20;4.07;;;;;;;-148.88;69.04;75907.22;5030757;28;20437;-86
2022/05/10 00:53:47;;;;;;;7.70;4.60;;;;;;;-148.88;69.18;75907.22;5030847;28;20033;-86
2022/05/10 00:56:23;;;;;;;8.35;4.85;;;;;;;-148.88;68.82;75903.16;5031738;28;20022;-86
2022/05/10 00:58:59;;;;;;;6.72;4.60;;;;;;;-148.88;69.06;75901.13;5014373;28;20045;-85
2022/05/10 01:01:32;;;;;;;6.75;4.55;;;;;;;-148.88;68.92;75905.19;5014160;28;20037;-85
2022/05/10 01:04:15;;;;;;;9.37;4.73;;;;;;;-148.88;69.42;75903.16;5029980;28;20029;-85
2022/05/10 01:06:50;;;;;;;7.97;5.00;;;;;;;-148.88;69.39;75899.09;5052299;23;20065;-84
2022/05/10 01:09:30;;;;;;;7.97;5.05;;;;;;;-148.88;69.52;75899.09;5034699;28;20029;-84
2022/05/10 01:12:02;;;;;;;8.68;4.60;;;;;;;-148.88;69.48;75897.06;5034478;28;20068;-84
2022/05/10 01:14:35;;;;;;;6.05;4.40;;;;;;;-148.88;69.55;75899.09;5049801;28;20067;-84
2022/05/10 01:17:00;;;;;;;9.23;4.70;;;;;;;-148.88;69.85;75899.09;5034184;28;20029;-84
2022/05/10 01:19:26;;;;;;;12.02;5.10;;;;;;;-148.88;69.99;75905.19;5034639;28;20030;-84
2022/05/10 01:21:57;;;;;;;8.48;5.13;;;;;;;-148.88;70.03;75905.19;5034562;28;20028;-84
2022/05/10 01:24:50;;;;;;;7.13;5.28;;;;;;;-148.88;70.21;75907.22;5034615;28;20482;-84
2022/05/10 01:27:40;;;;;;;7.10;5.10;;;;;;;-148.88;70.12;75915.34;5035172;28;20025;-84
2022/05/10 01:30:15;;;;;;;7.13;4.85;;;;;;;-148.88;70.53;75921.44;5034832;28;20026;-84
2022/05/10 01:35:41;;;;;;;8.23;5.00;;;;;;;-148.88;71.67;75949.88;5035124;28;20044;-84
2022/05/10 01:38:21;;;;;;;6.10;4.80;;;;;;;-148.88;71.55;75947.84;5034862;28;20087;-84
2022/05/10 01:40:52;;;;;;;7.90;5.15;;;;;;;-148.88;71.90;75951.91;5034398;28;20022;-83
2022/05/10 01:43:46;;;;;;;8.02;5.38;;;;;;;-148.88;71.85;75947.84;5034150;28;20398;-85
2022/05/10 01:46:20;;;;;;;8.43;5.15;;;;;;;-148.88;71.79;75945.81;5033222;28;20044;-84
2022/05/10 01:48:49;;;;;;;6.88;5.10;;;;;;;-148.88;72.40;75945.81;5033110;28;20490;-85
2022/05/10 01:51:22;;;;;;;6.60;4.80;;;;;;;-148.88;72.29;75947.84;5033015;28;20017;-85
2022/05/10 01:53:47;;;;;;;7.38;5.15;;;;;;;-148.88;72.52;75937.69;5032981;28;20021;-85
2022/05/10 01:56:20;;;;;;;7.43;5.32;;;;;;;-148.88;72.82;75951.91;5033747;28;20026;-84
2022/05/10 01:58:46;;;;;;;8.70;5.20;;;;;;;-148.88;72.64;75947.84;5034781;28;20037;-84
2022/05/10 02:01:24;;;;;;;7.20;5.25;;;;;;;-148.88;72.97;75955.97;5033325;28;20152;-85
2022/05/10 02:04:08;;;;;;;10.30;5.88;;;;;;;-148.88;72.70;75955.97;5034828;28;20025;-85
2022/05/10 02:06:40;;;;;;;7.82;4.93;;;;;;;-148.88;73.12;75955.97;5032484;28;20035;-84
2022/05/10 02:09:30;;;;;;;7.60;4.93;;;;;;;-148.88;73.27;75955.97;5033657;28;20025;-84
2022/05/10 02:12:05;;;;;;;8.75;5.30;;;;;;;-148.88;73.14;75951.91;5033629;28;20087;-84
2022/05/10 02:14:57;;;;;;;7.85;5.53;;;;;;;-148.88;73.53;75960.03;5032620;28;20061;-84
2022/05/10 02:17:30;;;;;;;9.80;5.95;;;;;;;-148.88;74.01;75955.97;5033614;28;20060;-84
2022/05/10 02:20:07;;;;;;;8.57;5.35;;;;;;;-148.88;73.92;75960.03;5033634;28;20033;-85
2022/05/10 02:22:46;;;;;;;8.02;5.43;;;;;;;-148.88;73.94;75955.97;5033904;28;20087;-85
2022/05/10 02:25:17;;;;;;;8.48;6.05;;;;;;;-148.88;74.56;75955.97;5034000;28;20101;-84
2022/05/10 02:27:46;;;;;;;9.65;6.00;;;;;;;-148.88;74.63;75958.00;5034244;28;20040;-84
2022/05/10 02:30:15;;;;;;;8.73;5.93;;;;;;;-148.88;74.58;75955.97;5034459;28;20025;-85
2022/05/10 02:33:09;;;;;;;9.68;5.78;;;;;;;-148.88;74.93;75955.97;5033651;28;20418;-83
2022/05/10 02:35:43;;;;;;;8.75;6.00;;;;;;;-148.88;74.87;75951.91;5032960;28;20032;-85
2022/05/10 02:38:12;;;;;;;10.52;6.00;;;;;;;-148.88;75.00;75951.91;5034459;28;20040;-85
2022/05/10 02:40:41;;;;;;;10.45;5.97;;;;;;;-148.88;75.52;75958.00;5034419;28;20060;-85
2022/05/10 02:43:09;;;;;;;10.88;5.97;;;;;;;-148.88;75.53;75958.00;5032822;28;20028;-85
2022/05/10 02:45:36;;;;;;;9.82;5.97;;;;;;;-148.88;75.55;75964.09;5033842;28;20030;-84
2022/05/10 02:48:02;;;;;;;8.18;5.40;;;;;;;-148.88;75.70;75970.19;5034060;28;20029;-84
2022/05/10 02:50:33;;;;;;;8.90;6.00;;;;;;;-148.88;75.63;75968.16;5033848;28;20017;-84
2022/05/10 02:52:59;;;;;;;7.95;5.53;;;;;;;-148.88;75.57;75966.13;5033178;28;20029;-85
2022/05/10 02:55:42;;;;;;;8.65;5.78;;;;;;;-148.88;75.78;75964.09;5032098;28;20497;-84
2022/05/10 02:58:16;;;;;;;7.75;5.82;;;;;;;-148.88;76.00;75970.19;5033678;28;20052;-84
2022/05/10 03:00:42;;;;;;;7.72;5.85;;;;;;;-148.88;75.92;75970.19;5033433;28;20057;-84
2022/05/10 03:03:13;;;;;;;8.93;6.30;;;;;;;-148.88;76.12;75964.09;5033574;28;20049;-84
2022/05/10 03:05:39;;;;;;;8.85;5.68;;;;;;;-148.88;75.93;75964.09;5032210;28;20064;-85
2022/05/10 03:08:05;;;;;;;10.48;6.03;;;;;;;-148.88;75.96;75960.03;5033076;28;20040;-85
2022/05/10 03:10:34;;;;;;;14.07;6.35;;;;;;;-148.88;76.15;75964.09;5032680;28;20104;-84
2022/05/10 03:12:59;;;;;;;12.15;6.30;;;;;;;-148.88;75.98;75962.06;5031605;28;20121;-84
2022/05/10 03:15:25;;;;;;;9.93;6.15;;;;;;;-148.88;75.91;75964.09;5031286;28;20057;-84
2022/05/10 03:17:51;;;;;;;11.27;6.65;;;;;;;-148.88;76.39;75966.13;5033224;28;20032;-85
2022/05/10 03:20:17;;;;;;;8.75;6.07;;;;;;;-148.88;76.26;75968.16;5032824;28;20526;-85
2022/05/10 03:22:42;;;;;;;8.48;6.13;;;;;;;-148.88;76.34;75970.19;5031441;28;20060;-84
2022/05/10 03:25:08;;;;;;;9.35;6.25;;;;;;;-148.88;75.97;75968.16;5032891;28;20029;-85
2022/05/10 03:27:34;;;;;;;10.13;7.10;;;;;;;-148.88;76.37;75966.13;5033695;28;20052;-84
2022/05/10 03:30:02;;;;;;;10.35;6.40;;;;;;;-148.88;76.42;75966.13;5036740;28;20100;-85
2022/05/10 03:32:31;;;;;;;9.25;6.22;;;;;;;-148.88;76.60;75966.13;5037312;28;20430;-85
2022/05/10 03:34:59;;;;;;;7.05;5.75;;;;;;;-148.88;76.20;75960.03;5035569;28;20037;-87
2022/05/10 03:37:30;;;;;;;10.45;6.07;;;;;;;-148.88;75.70;75951.91;5037019;28;20030;-85
2022/05/10 03:39:56;;;;;;;8.25;5.88;;;;;;;-148.88;75.67;75947.84;5036973;28;20423;-84
2022/05/10 03:42:22;;;;;;;9.73;6.38;;;;;;;-148.88;75.73;75947.84;5037251;28;20017;-84
2022/05/10 03:44:52;;;;;;;9.15;6.38;;;;;;;-148.88;75.63;75939.72;5037252;28;20131;-85
2022/05/10 03:47:27;;;;;;;10.60;6.65;;;;;;;-148.88;75.15;75943.78;5038671;28;20079;-85
2022/05/10 03:49:53;;;;;;;10.45;6.53;;;;;;;-148.88;75.14;75935.66;5036911;28;20032;-86
2022/05/10 03:52:19;;;;;;;10.25;6.40;;;;;;;-148.88;75.13;75935.66;5035223;28;20359;-85
2022/05/10 03:54:44;;;;;;;9.27;6.25;;;;;;;-148.88;75.28;75931.59;5035216;28;20494;-85
2022/05/10 03:57:10;;;;;;;9.55;6.28;;;;;;;-148.88;75.72;75943.78;5036964;28;20048;-84
2022/05/10 03:59:41;;;;;;;8.90;6.35;;;;;;;-148.88;75.94;75951.91;5036341;28;20025;-86
2022/05/10 04:02:07;;;;;;;8.95;6.53;;;;;;;-148.88;76.20;75955.97;5037854;28;20106;-86
2022/05/10 04:04:32;;;;;;;13.48;6.72;;;;;;;-148.88;76.29;75958.00;5036687;28;20538;-85
2022/05/10 04:06:57;;;;;;;10.65;6.63;;;;;;;-148.88;76.44;75958.00;5035911;28;20075;-86
2022/05/10 04:09:23;;;;;;;9.43;6.30;;;;;;;-148.88;76.54;75953.94;5035099;28;20048;-86
2022/05/10 04:11:48;;;;;;;12.85;6.70;;;;;;;-148.88;76.92;75951.91;5035548;28;20025;-86
2022/05/10 04:14:13;;;;;;;8.95;6.72;;;;;;;-148.88;76.84;75951.91;5034353;28;20486;-87
2022/05/10 04:16:39;;;;;;;10.05;6.55;;;;;;;-148.88;77.19;75951.91;5035577;28;20037;-87
2022/05/10 04:19:04;;;;;;;8.38;6.45;;;;;;;-148.88;77.43;75953.94;5034473;28;20049;-86
2022/05/10 04:21:29;;;;;;;7.95;6.47;;;;;;;-148.88;77.34;75953.94;5036002;28;20049;-86
2022/05/10 04:23:55;;;;;;;11.90;6.78;;;;;;;-148.88;77.53;75949.88;5036092;28;20096;-85
2022/05/10 04:26:20;;;;;;;8.23;6.43;;;;;;;-148.88;77.25;75951.91;5035903;28;20037;-86
2022/05/10 04:28:46;;;;;;;10.00;6.72;;;;;;;-148.88;77.39;75951.91;5036110;28;20022;-86
2022/05/10 04:31:12;;;;;;;11.65;6.95;;;;;;;-148.88;77.40;75947.84;5037728;28;20448;-86
2022/05/10 04:33:38;;;;;;;8.48;6.47;;;;;;;-148.88;77.59;75947.84;5037066;28;20025;-86
2022/05/10 04:36:04;;;;;;;11.38;6.30;;;;;;;-148.88;77.68;75943.78;5035505;28;20230;-85
2022/05/10 04:38:29;;;;;;;8.27;6.40;;;;;;;-148.88;77.48;75935.66;5034757;28;20392;-85
2022/05/10 04:43:39;;;;;;;9.48;7.25;;;;;;;-148.88;78.12;75937.69;5035337;28;20087;-86
2022/05/10 04:46:05;;;;;;;9.80;6.32;;;;;;;-148.88;77.94;75935.66;5035698;28;20449;-87
2022/05/10 04:48:30;;;;;;;9.55;6.70;;;;;;;-148.88;77.92;75935.66;5034867;28;20045;-86
2022/05/10 04:50:55;;;;;;;10.65;6.63;;;;;;;-148.88;78.50;75931.59;5035331;28;20021;-86
2022/05/10 04:53:21;;;;;;;9.63;6.72;;;;;;;-148.88;78.08;75923.47;5034873;28;20025;-87
2022/05/10 04:55:48;;;;;;;10.20;7.03;;;;;;;-148.88;78.01;75919.41;5033878;28;20118;-86
2022/05/10 04:58:14;;;;;;;8.98;6.47;;;;;;;-148.88;77.80;75907.22;5034924;28;20026;-85
2022/05/10 05:00:40;;;;;;;9.52;6.60;;;;;;;-148.88;77.58;75903.16;5035333;28;20025;-86
2022/05/10 05:03:05;;;;;;;9.13;7.28;;;;;;;-148.88;77.58;75895.03;5035771;28;20021;-86
2022/05/10 05:05:31;;;;;;;8.80;5.90;;;;;;;-148.88;77.01;75886.91;5035784;28;20033;-86
2022/05/10 05:07:56;;;;;;;9.18;6.70;;;;;;;-148.88;76.51;75880.81;5034805;28;20071;-86
2022/05/10 05:10:21;;;;;;;9.23;6.43;;;;;;;-148.88;76.19;75874.72;5035434;28;20025;-86
2022/05/10 05:12:46;;;;;;;11.13;6.38;;;;;;;-148.88;76.22;75862.53;5035259;28;20116;-85
2022/05/10 05:15:12;;;;;;;11.23;6.90;;;;;;;-148.88;76.44;75846.28;5034779;28;20026;-86
2022/05/10 05:17:38;;;;;;;9.75;6.35;;;;;;;-148.88;76.03;75838.16;5034815;28;20436;-85
2022/05/10 05:20:04;;;;;;;10.10;6.50;;;;;;;-148.88;76.84;75832.06;5033874;28;20025;-86
2022/05/10 05:22:29;;;;;;;10.20;6.53;;;;;;;-148.88;76.34;75819.88;5035227;28;20057;-86
2022/05/10 05:24:55;;;;;;;9.80;6.90;;;;;;;-148.88;75.96;75813.78;5035440;28;20064;-85
2022/05/10 05:27:20;;;;;;;10.20;7.05;;;;;;;-148.88;76.10;75809.72;5035264;28;20104;-85
2022/05/10 05:29:46;;;;;;;8.63;6.22;;;;;;;-148.88;76.56;75797.53;5035936;28;20085;-85
2022/05/10 05:32:12;;;;;;;12.32;7.20;;;;;;;-148.88;76.18;75793.47;5034495;28;20026;-86
2022/05/10 05:34:38;;;;;;;9.20;6.57;;;;;;;-148.88;76.48;75781.28;5034661;28;20028;-86
2022/05/10 05:39:49;;;;;;;9.80;6.93;;;;;;;-148.88;76.29;75769.09;5035357;28;20037;-85
2022/05/10 05:42:14;;;;;;;7.93;6.47;;;;;;;-148.88;76.13;75767.06;5035091;28;20394;-85
2022/05/10 05:44:39;;;;;;;10.02;7.30;;;;;;;-148.88;76.29;75758.94;5034712;28;20061;-85
2022/05/10 05:47:05;;;;;;;9.57;6.78;;;;;;;-148.88;76.29;75746.75;5035037;28;20021;-86
2022/05/10 05:49:30;;;;;;;7.32;6.57;;;;;;;-148.88;76.37;75736.59;5035690;28;20021;-85
2022/05/10 05:52:00;;;;;;;9.50;7.00;;;;;;;-148.88;75.97;75728.47;5035259;28;20160;-85
2022/05/10 05:54:26;;;;;;;8.57;6.85;;;;;;;-148.88;76.25;75728.47;5035101;28;20398;-85
2022/05/10 05:57:01;;;;;;;7.47;6.65;;;;;;;-148.88;76.38;75714.25;5035012;28;20463;-87
2022/05/10 05:59:27;;;;;;;9.90;6.68;;;;;;;-148.88;75.98;75698.00;5035146;28;20025;-85
2022/05/10 06:01:53;;;;;;;9.45;6.60;;;;;;;-148.88;76.80;75687.84;5035022;28;20028;-87
2022/05/10 06:04:19;;;;;;;11.60;7.68;;;;;;;-148.88;75.74;75687.84;5034767;28;20031;-86
2022/05/10 06:06:44;;;;;;;9.98;6.57;;;;;;;-148.88;76.08;75673.63;5034170;28;20045;-85
2022/05/10 06:09:09;;;;;;;9.77;6.78;;;;;;;-148.88;74.99;75667.53;5034569;28;20108;-86
2022/05/10 06:11:35;;;;;;;9.43;7.28;;;;;;;-148.88;74.74;75653.31;5034777;28;20029;-86
2022/05/10 06:14:01;;;;;;;9.88;6.45;;;;;;;-148.88;74.88;75649.25;5034607;28;20068;-86
2022/05/10 06:16:27;;;;;;;11.82;7.03;;;;;;;-148.88;75.23;75639.09;5034738;28;20025;-85
2022/05/10 06:18:52;;;;;;;9.18;6.93;;;;;;;-148.88;76.77;75633.00;5034728;28;20458;-86
2022/05/10 06:21:17;;;;;;;11.50;8.20;;;;;;;-148.88;78.02;75622.84;5034364;28;20021;-86
2022/05/10 06:23:43;;;;;;;10.50;6.80;;;;;;;-148.88;75.98;75614.72;5034412;28;20030;-86
2022/05/10 06:26:08;;;;;;;11.15;6.88;;;;;;;-148.88;77.04;75610.66;5035720;28;20030;-87
2022/05/10 06:28:34;;;;;;;10.65;7.18;;;;;;;-148.88;78.15;75604.56;5034540;28;20497;-86
2022/05/10 06:31:01;;;;;;;10.57;7.32;;;;;;;-148.88;76.05;75606.59;5034364;28;20030;-87
2022/05/10 06:33:27;;;;;;;10.48;7.18;;;;;;;-148.88;74.97;75594.44;5034452;28;20052;-87
2022/05/10 06:35:53;;;;;;;8.65;6.90;;;;;;;-148.88;75.30;75586.31;5033398;28;20032;-87
2022/05/10 06:38:27;;;;;;;11.23;7.72;;;;;;;-148.88;75.50;75576.13;5034517;28;20026;-87
2022/05/10 06:40:53;;;;;;;10.13;7.57;;;;;;;-148.88;75.23;75557.88;5034330;28;20022;-87
2022/05/10 06:43:19;;;;;;;10.35;7.45;;;;;;;-148.88;75.93;75553.81;5034011;28;20071;-87
2022/05/10 06:45:45;;;;;;;8.57;7.28;;;;;;;-148.88;75.07;75537.56;5034015;28;20029;-87
2022/05/10 06:48:10;;;;;;;10.18;7.63;;;;;;;-148.88;76.35;75517.25;5030509;28;20017;-88
2022/05/10 06:50:37;;;;;;;9.25;7.90;;;;;;;-148.88;76.42;75501.00;5031561;28;20026;-87
2022/05/10 06:53:02;;;;;;;10.50;7.28;;;;;;;-148.88;76.72;75472.56;5033586;28;20029;-87
2022/05/10 06:55:29;;;;;;;10.30;7.18;;;;;;;-148.88;75.50;75446.16;5032866;28;20021;-88
2022/05/10 06:57:54;;;;;;;9.48;7.03;;;;;;;-148.88;75.21;75440.06;5033992;28;20368;-87
2022/05/10 07:00:21;;;;;;;11.75;7.18;;;;;;;-148.88;72.76;75423.81;5033874;28;20529;-88
2022/05/10 07:02:47;;;;;;;9.48;6.50;;;;;;;-148.88;68.87;75403.50;5036816;28;20542;-87
2022/05/10 07:05:14;;;;;;;8.25;6.45;;;;;;;-148.88;67.41;75379.13;5062275;22;20068;-83
2022/05/10 07:07:40;;;;;;;10.73;6.60;;;;;;;-148.88;66.86;75354.75;5035432;28;20057;-84
2022/05/10 07:10:10;;;;;;;9.90;6.45;;;;;;;-148.88;67.82;75334.44;5037421;28;20025;-86
2022/05/10 07:12:36;;;;;;;12.40;7.07;;;;;;;-148.88;65.99;75306.00;5036010;28;20026;-86
2022/05/10 07:15:02;;;;;;;9.45;6.97;;;;;;;-148.88;66.06;75285.69;5037465;28;20022;-86
2022/05/10 07:17:28;;;;;;;9.90;6.70;;;;;;;-148.88;63.61;75273.53;5035715;28;20037;-85
2022/05/10 07:19:53;;;;;;;9.85;6.22;;;;;;;-148.88;61.27;75265.41;5036454;28;20025;-86
2022/05/10 07:22:19;;;;;;;9.90;6.15;;;;;;;-148.88;61.42;75247.13;5035621;28;20103;-86
2022/05/10 07:24:44;;;;;;;7.90;6.13;;;;;;;-148.88;60.56;75243.06;5036563;28;20029;-84
2022/05/10 07:27:09;;;;;;;8.02;6.28;;;;;;;-148.88;60.43;75228.84;5036565;28;20029;-86
2022/05/10 07:29:35;;;;;;;10.07;6.45;;;;;;;-148.88;63.02;75216.66;5036663;28;20108;-85
2022/05/10 07:32:00;;;;;;;15.38;7.00;;;;;;;-148.88;62.85;75204.47;5035384;28;20108;-86
2022/05/10 07:34:26;;;;;;;11.07;6.40;;;;;;;-148.88;60.13;75200.41;5036491;28;20022;-84
2022/05/10 07:36:51;;;;;;;11.38;7.53;;;;;;;-148.88;61.10;75188.22;5035089;28;20022;-85
2022/05/10 07:39:18;;;;;;;10.70;6.47;;;;;;;-148.88;60.72;75188.22;5036844;28;20057;-86
2022/05/10 07:41:44;;;;;;;9.27;6.75;;;;;;;-148.88;58.71;75184.16;5035189;28;20040;-85
2022/05/10 07:44:10;;;;;;;8.38;6.25;;;;;;;-148.88;61.52;75171.97;5036465;28;20430;-86
2022/05/10 07:46:35;;;;;;;8.30;6.90;;;;;;;-148.88;60.60;75167.91;5035246;28;20032;-85
2022/05/10 07:49:01;;;;;;;9.40;6.78;;;;;;;-148.88;60.30;75153.69;5035414;28;20104;-86
2022/05/10 07:51:26;;;;;;;10.07;6.40;;;;;;;-148.88;61.91;75123.22;5035034;28;20076;-86
2022/05/10 07:53:51;;;;;;;10.13;6.45;;;;;;;-148.88;60.31;75109.00;5035081;28;20033;-85
2022/05/10 07:56:18;;;;;;;9.25;7.18;;;;;;;-148.88;60.16;75094.81;5036168;28;20028;-86
2022/05/10 07:58:43;;;;;;;14.15;6.88;;;;;;;-148.88;60.28;75078.56;5036598;28;20094;-84
2022/05/10 08:01:09;;;;;;;11.13;7.15;;;;;;;-148.88;55.97;75066.38;5034095;28;20120;-86
2022/05/10 08:03:35;;;;;;;10.00;6.53;;;;;;;-148.88;56.44;75050.13;5034957;28;20116;-86
2022/05/10 08:06:00;;;;;;;9.27;7.03;;;;;;;-148.88;56.13;75035.91;5032121;28;20128;-87
2022/05/10 08:08:28;;;;;;;13.40;6.88;;;;;;;-148.88;56.04;75025.75;5034744;28;20025;-87
2022/05/10 08:10:54;;;;;;;10.95;6.93;;;;;;;-148.88;55.68;75005.44;5034710;28;20060;-89
2022/05/10 08:13:25;;;;;;;9.38;7.47;;;;;;;-148.88;54.55;74995.28;5036191;28;20045;-89
2022/05/10 08:15:51;;;;;;;8.90;7.63;;;;;;;-148.88;53.97;74987.16;5034635;28;20459;-90
2022/05/10 08:18:18;;;;;;;8.80;7.00;;;;;;;-148.88;53.28;74964.81;5035027;28;20025;-86
2022/05/10 08:20:44;;;;;;;13.20;7.25;;;;;;;-148.88;54.09;74956.69;5034890;28;20052;-86
2022/05/10 08:23:15;;;;;;;9.65;6.97;;;;;;;-148.88;56.17;74932.34;5034768;28;20446;-86
2022/05/10 08:25:41;;;;;;;12.23;7.63;;;;;;;-148.88;53.29;74938.44;5034873;28;20168;-86
2022/05/10 08:28:13;;;;;;;12.43;7.28;;;;;;;-148.88;54.55;74926.25;5035072;28;20052;-86
2022/05/10 08:30:40;;;;;;;13.35;7.43;;;;;;;-148.88;52.70;74920.16;5034243;28;20029;-86
2022/05/10 08:33:06;;;;;;;12.77;7.88;;;;;;;-148.88;55.13;74926.25;5035611;28;20025;-88
2022/05/10 08:35:31;;;;;;;11.95;7.70;;;;;;;-148.88;56.43;74918.13;5034270;28;20393;-86
2022/05/10 08:37:56;;;;;;;9.88;7.07;;;;;;;-148.88;55.83;74895.78;5035507;28;20119;-87
2022/05/10 08:40:29;;;;;;;10.18;7.43;;;;;;;-148.88;55.92;74903.91;5035450;28;20029;-85
2022/05/10 08:43:00;;;;;;;9.13;7.13;;;;;;;-148.88;54.88;74875.47;5034101;28;20018;-87
2022/05/10 08:45:27;;;;;;;9.57;7.18;;;;;;;-148.88;54.33;74869.38;5033729;28;20022;-87
2022/05/10 08:47:53;;;;;;;11.38;7.70;;;;;;;-148.88;53.17;74855.16;5033874;28;20022;-87
2022/05/10 08:50:19;;;;;;;10.85;6.80;;;;;;;-148.88;53.92;74836.88;5033629;28;20032;-86
2022/05/10 08:52:47;;;;;;;10.40;7.78;;;;;;;-148.88;51.26;74836.88;5033865;28;20021;-87
2022/05/10 08:55:19;;;;;;;10.75;7.85;;;;;;;-148.88;51.72;74842.97;5033889;28;20489;-86
2022/05/10 08:57:50;;;;;;;11.27;7.25;;;;;;;-148.88;54.47;74818.59;5035038;28;20026;-86
2022/05/10 09:00:26;;;;;;;10.27;7.55;;;;;;;-148.88;52.90;74796.28;5034901;28;20033;-86
2022/05/10 09:02:55;;;;;;;11.15;6.50;;;;;;;-148.88;52.98;74765.81;5034128;28;20028;-86
2022/05/10 09:05:26;;;;;;;7.97;5.97;;;;;;;-148.88;49.42;74733.31;5033217;28;20037;-87
2022/05/10 09:07:57;;;;;;;8.10;5.85;;;;;;;-148.88;48.18;74737.38;5034905;28;20022;-87
2022/05/10 09:10:44;;;;;;;9.82;5.78;;;;;;;-148.88;48.32;74731.28;5033369;28;20482;-87
2022/05/10 09:13:15;;;;;;;11.13;6.32;;;;;;;-148.88;47.68;74704.88;5033202;28;20055;-88
2022/05/10 09:16:12;;;;;;;8.25;5.32;;;;;;;-148.88;47.75;74688.66;5033443;28;20382;-88
2022/05/10 09:18:42;;;;;;;8.45;6.28;;;;;;;-148.88;47.18;74672.41;5035479;28;20049;-88
2022/05/10 09:21:26;;;;;;;8.45;5.70;;;;;;;-148.88;46.29;74684.59;5033372;28;20402;-87
2022/05/10 09:24:10;;;;;;;;;;;;;;;-148.88;46.13;74680.53;5033313;28;20018;-89
2022/05/10 09:26:45;;;;;;;8.50;4.93;;;;;;;-148.88;47.58;74670.38;5032564;28;19960;-88
2022/05/10 09:29:37;;;;;;;9.43;6.30;;;;;;;-148.88;44.96;74658.19;5032897;28;20090;-89
2022/05/10 09:35:09;;;;;;;;;;;;;;;-148.88;45.77;74568.84;5035266;28;20040;-88
2022/05/10 09:37:43;;;;;;;9.05;6.03;;;;;;;-148.88;46.94;74550.56;5033894;28;19909;-87
2022/05/10 09:40:17;;;;;;;10.57;6.22;;;;;;;-148.88;45.43;74522.13;5034513;28;20526;-88
2022/05/10 09:42:45;;;;;;;10.50;6.60;;;;;;;-148.88;42.82;74554.63;5032896;28;20032;-88
2022/05/10 09:45:16;;;;;;;7.10;5.38;;;;;;;-148.88;43.00;74566.81;5033996;28;20478;-89
2022/05/10 09:48:09;;;;;;;12.70;5.45;;;;;;;-148.88;45.23;74544.47;5034074;28;20037;-88
2022/05/10 09:50:39;;;;;;;12.05;5.78;;;;;;;-148.88;43.31;74544.47;5032750;28;20068;-90
2022/05/10 09:53:13;;;;;;;12.00;5.43;;;;;;;-148.88;43.75;74538.38;5032387;28;20116;-87
2022/05/10 09:55:41;;;;;;;7.13;5.20;;;;;;;-148.88;43.41;74546.50;5033895;28;20041;-87
2022/05/10 09:58:19;;;;;;;9.00;5.18;;;;;;;-148.88;44.64;74520.09;5032428;28;20018;-88
2022/05/10 10:00:53;;;;;;;7.57;5.32;;;;;;;-148.88;42.46;74516.03;5034417;28;20048;-87
2022/05/10 10:03:34;;;;;;;6.95;5.35;;;;;;;-148.88;43.55;74518.06;5033297;28;20425;-88
2022/05/10 10:06:29;;;;;;;6.88;4.80;;;;;;;-148.88;43.10;74540.41;5032258;28;20038;-89
2022/05/10 10:08:56;;;;;;;7.65;5.20;;;;;;;-148.88;44.67;74522.13;5015866;28;20038;-87
2022/05/10 10:11:21;;;;;;;10.07;5.63;;;;;;;-148.88;43.46;74522.13;5032998;28;20060;-88
2022/05/10 10:13:54;;;;;;;6.30;5.00;;;;;;;-148.88;43.64;74465.28;5034107;28;20466;-86
2022/05/10 10:16:30;;;;;;;7.65;4.50;;;;;;;-148.88;43.08;74380.00;5032446;28;20025;-88
2022/05/10 10:19:01;;;;;;;6.45;4.70;;;;;;;-148.88;41.93;74349.53;5032769;28;20021;-90
2022/05/10 10:21:41;;;;;;;7.93;4.80;;;;;;;-148.88;40.40;74363.75;5032805;28;20458;-87
2022/05/10 10:24:31;;;;;;;6.55;4.60;;;;;;;-148.88;39.70;74371.88;5032790;28;20112;-88
2022/05/10 10:27:11;;;;;;;5.70;4.10;;;;;;;-148.88;41.26;74367.81;5032878;28;20029;-87
2022/05/10 10:29:55;;;;;;;8.05;4.32;;;;;;;-148.88;39.25;74335.31;5034120;28;20379;-87
2022/05/10 10:32:28;;;;;;;5.25;4.00;;;;;;;-148.88;40.71;74335.31;5033474;28;20029;-87
2022/05/10 10:35:24;;;;;;;6.82;4.05;;;;;;;-148.88;41.22;74359.69;5033127;28;20167;-87
2022/05/10 10:37:57;;;;;;;6.72;4.43;;;;;;;-148.88;39.51;74371.88;5033337;28;20034;-88
2022/05/10 10:40:39;;;;;;;6.57;3.95;;;;;;;-148.88;40.09;74384.06;5032412;28;20132;-87
2022/05/10 10:43:38;;;;;;;7.43;4.05;;;;;;;-148.88;40.44;74367.81;5033937;28;20037;-88
2022/05/10 10:46:28;;;;;;;5.18;3.80;;;;;;;-148.88;39.43;74369.84;5032409;28;20030;-89
2022/05/10 10:49:05;;;;;;;8.30;3.85;;;;;;;-148.88;38.38;74349.53;5032665;28;20048;-88
2022/05/10 10:51:33;;;;;;;5.32;4.07;;;;;;;-148.88;38.84;74272.38;5032678;28;20131;-89
2022/05/10 10:54:05;;;;;;;5.78;3.42;;;;;;;-148.88;38.52;74237.88;5032101;28;20025;-90
2022/05/10 10:56:40;;;;;;;4.80;3.47;;;;;;;-148.88;37.29;74278.47;5033176;28;20025;-89
2022/05/10 10:59:21;;;;;;;5.65;3.42;;;;;;;-148.88;37.24;74315.03;5032810;28;20053;-91
2022/05/10 11:02:38;;;;;;;5.50;3.80;;;;;;;-148.88;37.37;74294.72;5031784;28;20375;-89
2022/05/10 11:05:31;;;;;;;6.00;3.38;;;;;;;-148.88;38.50;74315.03;4988471;28;20033;-87
2022/05/10 11:08:21;;;;;;;5.10;3.60;;;;;;;-148.88;37.75;74339.38;5032597;28;20034;-87
2022/05/10 11:11:12;;;;;;;7.20;4.00;;;;;;;-148.88;38.95;74357.66;5031494;28;20029;-88
2022/05/10 11:13:58;;;;;;;6.07;3.90;;;;;;;-148.88;37.05;74380.00;5031570;28;20037;-88
2022/05/10 11:16:53;;;;;;;6.07;3.85;;;;;;;-148.88;38.41;74369.84;5032006;28;20500;-89
2022/05/10 11:19:49;;;;;;;5.53;3.97;;;;;;;-148.88;39.03;74351.56;5032564;28;20148;-88
2022/05/10 11:22:37;;;;;;;4.93;3.70;;;;;;;-148.88;38.20;74357.66;5031103;28;20037;-87
2022/05/10 11:25:20;;;;;;;8.13;4.20;;;;;;;-148.88;38.21;74384.06;5031365;28;20029;-89
2022/05/10 11:28:09;;;;;;;4.30;3.30;;;;;;;-148.88;38.62;74355.63;5032534;28;20336;-89
2022/05/10 11:31:04;;;;;;;7.55;3.70;;;;;;;-148.88;38.43;74363.75;5031333;28;20021;-89
2022/05/10 11:33:56;;;;;;;11.25;4.20;;;;;;;-148.88;38.59;74361.72;5031756;28;20117;-88
2022/05/10 11:36:41;;;;;;;5.80;3.80;;;;;;;-148.88;38.76;74339.38;5031233;28;20032;-89
2022/05/10 11:39:46;;;;;;;6.10;4.05;;;;;;;-148.88;39.87;74351.56;5031626;28;20040;-89
2022/05/10 11:42:34;;;;;;;4.65;4.10;;;;;;;-148.88;38.09;74339.38;5033195;28;20044;-88
2022/05/10 11:45:48;;;;;;;8.55;4.57;;;;;;;-148.88;36.96;74357.66;5033618;28;20017;-88